sensor_id;sensor_type;location;lat;lon;timestamp;pressure;altitude;pressure_sealevel;temperature;humidity
56334;BME280;42240;53.626;55.886;2022-08-19T00:00:27;76624.03;;;-145.10;47.18
56334;BME280;42240;53.626;55.886;2022-08-19T00:02:00;76614.16;;;-145.10;46.97
56334;BME280;42240;53.626;55.886;2022-08-19T00:03:34;76610.19;;;-145.10;46.78
56334;BME280;42240;53.626;55.886;2022-08-19T00:05:07;76604.25;;;-145.10;46.15
56334;BME280;42240;53.626;55.886;2022-08-19T00:06:42;76602.28;;;-145.10;46.29
56334;BME280;42240;53.626;55.886;2022-08-19T00:08:16;76606.22;;;-145.10;46.39
56334;BME280;42240;53.626;55.886;2022-08-19T00:09:50;76604.25;;;-145.10;46.32
56334;BME280;42240;53.626;55.886;2022-08-19T00:11:24;76608.22;;;-145.10;46.52
56334;BME280;42240;53.626;55.886;2022-08-19T00:12:59;76608.22;;;-145.10;46.56
56334;BME280;42240;53.626;55.886;2022-08-19T00:14:32;76614.16;;;-145.10;46.61
56334;BME280;42240;53.626;55.886;2022-08-19T00:16:06;76620.06;;;-145.10;46.85
56334;BME280;42240;53.626;55.886;2022-08-19T00:17:39;76631.94;;;-145.10;47.15
56334;BME280;42240;53.626;55.886;2022-08-19T00:19:14;76639.84;;;-145.10;47.32
56334;BME280;42240;53.626;55.886;2022-08-19T00:20:48;76651.72;;;-145.10;47.74
56334;BME280;42240;53.626;55.886;2022-08-19T00:22:22;76651.72;;;-145.10;48.35
56334;BME280;42240;53.626;55.886;2022-08-19T00:23:56;76647.75;;;-145.10;48.43
56334;BME280;42240;53.626;55.886;2022-08-19T00:25:33;76651.72;;;-145.10;48.61
56334;BME280;42240;53.626;55.886;2022-08-19T00:27:06;76653.69;;;-145.10;48.96
56334;BME280;42240;53.626;55.886;2022-08-19T00:28:58;76661.59;;;-145.10;49.45
56334;BME280;42240;53.626;55.886;2022-08-19T00:30:33;76663.59;;;-145.10;49.45
56334;BME280;42240;53.626;55.886;2022-08-19T00:32:07;76663.59;;;-145.10;49.47
56334;BME280;42240;53.626;55.886;2022-08-19T00:33:42;76671.50;;;-145.10;49.67
56334;BME280;42240;53.626;55.886;2022-08-19T00:35:15;76679.41;;;-145.10;49.84
56334;BME280;42240;53.626;55.886;2022-08-19T00:36:50;76687.31;;;-145.10;50.25
56334;BME280;42240;53.626;55.886;2022-08-19T00:38:23;76691.25;;;-145.10;50.41
56334;BME280;42240;53.626;55.886;2022-08-19T00:40:10;76707.09;;;-145.10;50.57
56334;BME280;42240;53.626;55.886;2022-08-19T00:41:45;76707.09;;;-145.10;50.48
56334;BME280;42240;53.626;55.886;2022-08-19T00:43:22;76711.03;;;-145.10;50.53
56334;BME280;42240;53.626;55.886;2022-08-19T00:44:57;76713.03;;;-145.10;50.77
56334;BME280;42240;53.626;55.886;2022-08-19T00:46:31;76713.03;;;-145.10;50.63
56334;BME280;42240;53.626;55.886;2022-08-19T00:48:05;76722.91;;;-145.10;50.80
56334;BME280;42240;53.626;55.886;2022-08-19T00:49:47;76728.84;;;-145.10;50.86
56334;BME280;42240;53.626;55.886;2022-08-19T00:51:26;76730.81;;;-145.10;51.21
56334;BME280;42240;53.626;55.886;2022-08-19T00:53:00;76730.81;;;-145.10;51.22
56334;BME280;42240;53.626;55.886;2022-08-19T00:54:36;76736.75;;;-145.10;51.51
56334;BME280;42240;53.626;55.886;2022-08-19T00:56:10;76728.84;;;-145.10;50.91
56334;BME280;42240;53.626;55.886;2022-08-19T00:57:47;76728.84;;;-145.10;51.03
56334;BME280;42240;53.626;55.886;2022-08-19T00:59:21;76730.81;;;-145.10;51.33
56334;BME280;42240;53.626;55.886;2022-08-19T01:01:15;76730.81;;;-145.10;51.36
56334;BME280;42240;53.626;55.886;2022-08-19T01:02:49;76738.72;;;-145.10;51.56
56334;BME280;42240;53.626;55.886;2022-08-19T01:04:26;76734.78;;;-145.10;51.15
56334;BME280;42240;53.626;55.886;2022-08-19T01:05:59;76738.72;;;-145.10;51.04
56334;BME280;42240;53.626;55.886;2022-08-19T01:07:34;76734.78;;;-145.10;51.01
56334;BME280;42240;53.626;55.886;2022-08-19T01:09:09;76734.78;;;-145.10;51.11
56334;BME280;42240;53.626;55.886;2022-08-19T01:11:03;76738.72;;;-145.10;50.98
56334;BME280;42240;53.626;55.886;2022-08-19T01:12:41;76740.69;;;-145.10;51.36
56334;BME280;42240;53.626;55.886;2022-08-19T01:14:14;76742.69;;;-145.10;51.53
56334;BME280;42240;53.626;55.886;2022-08-19T01:15:54;76711.03;;;-145.10;50.88
56334;BME280;42240;53.626;55.886;2022-08-19T01:17:27;76647.75;;;-145.10;49.47
56334;BME280;42240;53.626;55.886;2022-08-19T01:19:01;76586.47;;;-145.10;48.51
56334;BME280;42240;53.626;55.886;2022-08-19T01:20:35;76548.88;;;-145.10;47.57
56334;BME280;42240;53.626;55.886;2022-08-19T01:22:55;76501.44;;;-145.10;46.61
56334;BME280;42240;53.626;55.886;2022-08-19T01:24:05;76450.03;;;-145.10;45.67
56334;BME280;42240;53.626;55.886;2022-08-19T01:25:42;76406.53;;;-145.10;44.87
56334;BME280;42240;53.626;55.886;2022-08-19T01:27:17;76390.69;;;-145.10;43.92
56334;BME280;42240;53.626;55.886;2022-08-19T01:28:54;76339.28;;;-145.10;43.16
56334;BME280;42240;53.626;55.886;2022-08-19T01:30:32;76301.72;;;-145.10;42.68
56334;BME280;42240;53.626;55.886;2022-08-19T01:32:07;76268.13;;;-145.10;42.14
56334;BME280;42240;53.626;55.886;2022-08-19T01:34:01;76240.44;;;-145.10;41.12
56334;BME280;42240;53.626;55.886;2022-08-19T01:35:35;76220.66;;;-145.10;40.80
56334;BME280;42240;53.626;55.886;2022-08-19T01:37:12;76200.88;;;-145.10;40.40
56334;BME280;42240;53.626;55.886;2022-08-19T01:38:56;76109.94;;;-145.10;39.66
56334;BME280;42240;53.626;55.886;2022-08-19T01:40:31;76113.91;;;-145.10;38.58
56334;BME280;42240;53.626;55.886;2022-08-19T01:42:06;76030.84;;;-145.10;38.34
56334;BME280;42240;53.626;55.886;2022-08-19T01:43:43;76011.09;;;-145.10;37.08
56334;BME280;42240;53.626;55.886;2022-08-19T01:45:39;75987.34;;;-145.10;37.71
56334;BME280;42240;53.626;55.886;2022-08-19T01:47:12;76019.00;;;-145.10;36.94
56334;BME280;42240;53.626;55.886;2022-08-19T01:48:46;76040.75;;;-145.10;37.15
56334;BME280;42240;53.626;55.886;2022-08-19T01:50:19;76082.25;;;-145.10;38.56
56334;BME280;42240;53.626;55.886;2022-08-19T01:51:55;76044.69;;;-145.10;38.92
56334;BME280;42240;53.626;55.886;2022-08-19T01:53:28;76034.81;;;-145.10;38.29
56334;BME280;42240;53.626;55.886;2022-08-19T01:55:06;76007.13;;;-145.10;37.75
56334;BME280;42240;53.626;55.886;2022-08-19T01:56:39;76026.91;;;-145.10;38.09
56334;BME280;42240;53.626;55.886;2022-08-19T01:58:16;75971.53;;;-145.10;37.43
56334;BME280;42240;53.626;55.886;2022-08-19T01:59:51;75922.13;;;-145.10;36.73
56334;BME280;42240;53.626;55.886;2022-08-19T02:01:24;75924.09;;;-145.10;36.76
56334;BME280;42240;53.626;55.886;2022-08-19T02:03:03;75872.69;;;-145.10;36.52
56334;BME280;42240;53.626;55.886;2022-08-19T02:04:36;75858.84;;;-145.10;36.25
56334;BME280;42240;53.626;55.886;2022-08-19T02:06:12;75803.50;;;-145.10;35.96
56334;BME280;42240;53.626;55.886;2022-08-19T02:07:47;75769.88;;;-145.10;35.27
56334;BME280;42240;53.626;55.886;2022-08-19T02:09:20;75718.47;;;-145.10;34.36
56334;BME280;42240;53.626;55.886;2022-08-19T02:10:56;75686.84;;;-145.10;34.61
56334;BME280;42240;53.626;55.886;2022-08-19T02:12:30;75619.63;;;-145.10;33.92
56334;BME280;42240;53.626;55.886;2022-08-19T02:14:05;75588.00;;;-145.10;33.48
56334;BME280;42240;53.626;55.886;2022-08-19T02:15:39;75669.06;;;-145.10;33.78
56334;BME280;42240;53.626;55.886;2022-08-19T02:17:12;75560.31;;;-145.10;31.93
56334;BME280;42240;53.626;55.886;2022-08-19T02:18:46;75481.25;;;-145.10;32.31
56334;BME280;42240;53.626;55.886;2022-08-19T02:20:21;75461.47;;;-145.10;32.27
56334;BME280;42240;53.626;55.886;2022-08-19T02:21:55;75384.38;;;-145.10;31.38
56334;BME280;42240;53.626;55.886;2022-08-19T02:23:28;75334.97;;;-145.10;29.77
56334;BME280;42240;53.626;55.886;2022-08-19T02:25:01;75329.03;;;-145.10;29.23
56334;BME280;42240;53.626;55.886;2022-08-19T02:26:35;75366.59;;;-145.10;28.87
56334;BME280;42240;53.626;55.886;2022-08-19T02:28:08;75303.34;;;-145.10;28.53
56334;BME280;42240;53.626;55.886;2022-08-19T02:29:41;75263.81;;;-145.10;28.07
56334;BME280;42240;53.626;55.886;2022-08-19T02:31:16;75358.69;;;-145.10;28.50
56334;BME280;42240;53.626;55.886;2022-08-19T02:32:50;75358.69;;;-145.10;28.41
56334;BME280;42240;53.626;55.886;2022-08-19T02:34:23;75202.53;;;-145.10;27.99
56334;BME280;42240;53.626;55.886;2022-08-19T02:35:57;75267.75;;;-145.10;27.93
56334;BME280;42240;53.626;55.886;2022-08-19T02:37:31;75311.25;;;-145.10;28.09
56334;BME280;42240;53.626;55.886;2022-08-19T02:39:22;75338.91;;;-145.10;28.08
56334;BME280;42240;53.626;55.886;2022-08-19T02:42:29;75374.50;;;-145.10;28.11
56334;BME280;42240;53.626;55.886;2022-08-19T02:44:04;75348.81;;;-145.10;27.70
56334;BME280;42240;53.626;55.886;2022-08-19T02:45:58;75216.38;;;-145.10;27.49
56334;BME280;42240;53.626;55.886;2022-08-19T02:47:31;75216.38;;;-145.10;26.64
56334;BME280;42240;53.626;55.886;2022-08-19T02:49:06;75208.47;;;-145.10;26.82
56334;BME280;42240;53.626;55.886;2022-08-19T02:50:40;75085.91;;;-145.10;26.29
56334;BME280;42240;53.626;55.886;2022-08-19T02:52:24;75149.16;;;-145.10;26.31
56334;BME280;42240;53.626;55.886;2022-08-19T02:53:58;75194.63;;;-145.10;26.29
56334;BME280;42240;53.626;55.886;2022-08-19T02:55:32;75163.00;;;-145.10;26.31
56334;BME280;42240;53.626;55.886;2022-08-19T02:57:17;75141.25;;;-145.10;26.41
56334;BME280;42240;53.626;55.886;2022-08-19T02:58:51;75097.75;;;-145.10;26.07
56334;BME280;42240;53.626;55.886;2022-08-19T03:00:24;75159.03;;;-145.10;25.86
56334;BME280;42240;53.626;55.886;2022-08-19T03:01:58;75117.53;;;-145.10;26.06
56334;BME280;42240;53.626;55.886;2022-08-19T03:03:31;75095.78;;;-145.10;25.77
56334;BME280;42240;53.626;55.886;2022-08-19T03:05:05;75054.28;;;-145.10;25.38
56334;BME280;42240;53.626;55.886;2022-08-19T03:06:40;75046.38;;;-145.10;25.46
56334;BME280;42240;53.626;55.886;2022-08-19T03:08:14;75024.63;;;-145.10;25.29
56334;BME280;42240;53.626;55.886;2022-08-19T03:09:47;74975.22;;;-145.10;25.20
56334;BME280;42240;53.626;55.886;2022-08-19T03:11:26;75089.84;;;-145.10;25.32
56334;BME280;42240;53.626;55.886;2022-08-19T03:12:59;75058.22;;;-145.10;25.46
56334;BME280;42240;53.626;55.886;2022-08-19T03:14:36;75068.09;;;-145.10;25.17
56334;BME280;42240;53.626;55.886;2022-08-19T03:16:10;75072.06;;;-145.10;25.28
56334;BME280;42240;53.626;55.886;2022-08-19T03:17:44;74998.94;;;-145.10;25.17
56334;BME280;42240;53.626;55.886;2022-08-19T03:19:17;74957.41;;;-145.10;25.11
56334;BME280;42240;53.626;55.886;2022-08-19T03:20:52;75030.56;;;-145.10;25.09
56334;BME280;42240;53.626;55.886;2022-08-19T03:22:27;74933.69;;;-145.10;24.90
56334;BME280;42240;53.626;55.886;2022-08-19T03:24:03;74923.81;;;-145.10;24.98
56334;BME280;42240;53.626;55.886;2022-08-19T03:25:38;74919.88;;;-145.10;24.93
56334;BME280;42240;53.626;55.886;2022-08-19T03:27:14;74862.53;;;-145.10;24.62
56334;BME280;42240;53.626;55.886;2022-08-19T03:28:48;74872.44;;;-145.10;24.62
56334;BME280;42240;53.626;55.886;2022-08-19T03:30:30;74864.53;;;-145.10;24.44
56334;BME280;42240;53.626;55.886;2022-08-19T03:32:04;74864.53;;;-145.10;24.41
56334;BME280;42240;53.626;55.886;2022-08-19T03:33:38;74825.00;;;-145.10;23.77
56334;BME280;42240;53.626;55.886;2022-08-19T03:35:12;74821.03;;;-145.10;24.01
56334;BME280;42240;53.626;55.886;2022-08-19T03:36:46;74993.00;;;-145.10;24.68
56334;BME280;42240;53.626;55.886;2022-08-19T03:38:19;74975.22;;;-145.10;24.59
56334;BME280;42240;53.626;55.886;2022-08-19T03:39:53;75034.50;;;-145.10;24.80
56334;BME280;42240;53.626;55.886;2022-08-19T03:41:27;75070.09;;;-145.10;24.73
56334;BME280;42240;53.626;55.886;2022-08-19T03:43:17;75089.84;;;-145.10;24.92
56334;BME280;42240;53.626;55.886;2022-08-19T03:44:51;75002.88;;;-145.10;25.09
56334;BME280;42240;53.626;55.886;2022-08-19T03:46:26;74925.78;;;-145.10;24.34
56334;BME280;42240;53.626;55.886;2022-08-19T03:48:00;75014.75;;;-145.10;24.51
56334;BME280;42240;53.626;55.886;2022-08-19T03:49:33;75058.22;;;-145.10;24.26
56334;BME280;42240;53.626;55.886;2022-08-19T03:51:14;75123.47;;;-145.10;24.42
56334;BME280;42240;53.626;55.886;2022-08-19T03:53:02;75097.75;;;-145.10;24.54
56334;BME280;42240;53.626;55.886;2022-08-19T03:54:36;75216.38;;;-145.10;25.10
56334;BME280;42240;53.626;55.886;2022-08-19T03:56:11;75143.22;;;-145.10;24.99
56334;BME280;42240;53.626;55.886;2022-08-19T03:57:45;75046.38;;;-145.10;24.50
56334;BME280;42240;53.626;55.886;2022-08-19T03:59:25;75034.50;;;-145.10;24.89
56334;BME280;42240;53.626;55.886;2022-08-19T04:00:59;75089.84;;;-145.10;24.79
56334;BME280;42240;53.626;55.886;2022-08-19T04:02:33;75186.72;;;-145.10;25.22
56334;BME280;42240;53.626;55.886;2022-08-19T04:04:06;75251.94;;;-145.10;25.59
56334;BME280;42240;53.626;55.886;2022-08-19T04:05:40;75313.22;;;-145.10;25.80
56334;BME280;42240;53.626;55.886;2022-08-19T04:07:14;75323.09;;;-145.10;26.17
56334;BME280;42240;53.626;55.886;2022-08-19T04:08:51;75346.81;;;-145.10;26.38
56334;BME280;42240;53.626;55.886;2022-08-19T04:10:27;75263.81;;;-145.10;25.70
56334;BME280;42240;53.626;55.886;2022-08-19T04:12:00;75163.00;;;-145.10;25.68
56334;BME280;42240;53.626;55.886;2022-08-19T04:13:34;75196.59;;;-145.10;25.35
56334;BME280;42240;53.626;55.886;2022-08-19T04:15:07;75163.00;;;-145.10;25.50
56334;BME280;42240;53.626;55.886;2022-08-19T04:16:45;75123.47;;;-145.10;25.42
56334;BME280;42240;53.626;55.886;2022-08-19T04:18:19;75206.47;;;-145.10;25.29
56334;BME280;42240;53.626;55.886;2022-08-19T04:19:52;75147.19;;;-145.10;25.41
56334;BME280;42240;53.626;55.886;2022-08-19T04:21:26;75224.28;;;-145.10;25.77
56334;BME280;42240;53.626;55.886;2022-08-19T04:23:03;75091.84;;;-145.10;25.32
56334;BME280;42240;53.626;55.886;2022-08-19T04:24:36;75153.09;;;-145.10;25.18
56334;BME280;42240;53.626;55.886;2022-08-19T04:26:14;74967.31;;;-145.10;24.60
56334;BME280;42240;53.626;55.886;2022-08-19T04:27:48;75022.66;;;-145.10;24.81
56334;BME280;42240;53.626;55.886;2022-08-19T04:29:23;74943.59;;;-145.10;24.47
56334;BME280;42240;53.626;55.886;2022-08-19T04:31:00;74971.25;;;-145.10;24.40
56334;BME280;42240;53.626;55.886;2022-08-19T04:32:36;74896.16;;;-145.10;24.13
56334;BME280;42240;53.626;55.886;2022-08-19T04:34:10;74850.69;;;-145.10;23.44
56334;BME280;42240;53.626;55.886;2022-08-19T04:35:45;74844.75;;;-145.10;23.85
56334;BME280;42240;53.626;55.886;2022-08-19T04:37:22;74836.84;;;-145.10;23.31
56334;BME280;42240;53.626;55.886;2022-08-19T04:38:57;74783.47;;;-145.10;23.26
56334;BME280;42240;53.626;55.886;2022-08-19T04:40:30;74793.38;;;-145.10;23.08
56334;BME280;42240;53.626;55.886;2022-08-19T04:42:22;74753.84;;;-145.10;22.90
56334;BME280;42240;53.626;55.886;2022-08-19T04:44:14;74856.63;;;-145.10;23.23
56334;BME280;42240;53.626;55.886;2022-08-19T04:45:51;74826.97;;;-145.10;23.51
56334;BME280;42240;53.626;55.886;2022-08-19T04:47:32;74747.91;;;-145.10;22.91
56334;BME280;42240;53.626;55.886;2022-08-19T04:49:26;74919.88;;;-145.10;23.51
56334;BME280;42240;53.626;55.886;2022-08-19T04:50:59;74953.47;;;-145.10;23.70
56334;BME280;42240;53.626;55.886;2022-08-19T04:52:33;74874.41;;;-145.10;23.89
56334;BME280;42240;53.626;55.886;2022-08-19T04:54:15;75002.88;;;-145.10;24.52
56334;BME280;42240;53.626;55.886;2022-08-19T04:56:15;74933.69;;;-145.10;23.99
56334;BME280;42240;53.626;55.886;2022-08-19T04:57:50;74909.97;;;-145.10;23.70
56334;BME280;42240;53.626;55.886;2022-08-19T04:59:24;74753.84;;;-145.10;23.41
56334;BME280;42240;53.626;55.886;2022-08-19T05:00:58;74686.63;;;-145.10;23.26
56334;BME280;42240;53.626;55.886;2022-08-19T05:02:33;74611.53;;;-145.10;22.88
56334;BME280;42240;53.626;55.886;2022-08-19T05:04:06;74765.69;;;-145.10;23.36
56334;BME280;42240;53.626;55.886;2022-08-19T05:05:40;74826.97;;;-145.10;23.56
56334;BME280;42240;53.626;55.886;2022-08-19T05:07:16;74882.31;;;-145.10;24.08
56334;BME280;42240;53.626;55.886;2022-08-19T05:08:54;74755.81;;;-145.10;23.92
56334;BME280;42240;53.626;55.886;2022-08-19T05:10:30;74805.22;;;-145.10;23.87
56334;BME280;42240;53.626;55.886;2022-08-19T05:12:04;74858.59;;;-145.10;24.07
56334;BME280;42240;53.626;55.886;2022-08-19T05:13:37;74803.25;;;-145.10;23.75
56334;BME280;42240;53.626;55.886;2022-08-19T05:15:13;74765.69;;;-145.10;23.45
56334;BME280;42240;53.626;55.886;2022-08-19T05:16:46;74724.19;;;-145.10;23.56
56334;BME280;42240;53.626;55.886;2022-08-19T05:18:20;74805.22;;;-145.10;23.60
56334;BME280;42240;53.626;55.886;2022-08-19T05:20:12;75000.91;;;-145.10;24.42
56334;BME280;42240;53.626;55.886;2022-08-19T05:22:04;74906.03;;;-145.10;24.52
56334;BME280;42240;53.626;55.886;2022-08-19T05:24:00;74846.72;;;-145.10;23.90
56334;BME280;42240;53.626;55.886;2022-08-19T05:25:38;74929.75;;;-145.10;24.48
56334;BME280;42240;53.626;55.886;2022-08-19T05:27:13;74813.13;;;-145.10;23.82
56334;BME280;42240;53.626;55.886;2022-08-19T05:28:49;74832.91;;;-145.10;23.91
56334;BME280;42240;53.626;55.886;2022-08-19T05:30:26;74797.31;;;-145.10;23.66
56334;BME280;42240;53.626;55.886;2022-08-19T05:32:18;74923.81;;;-145.10;24.21
56334;BME280;42240;53.626;55.886;2022-08-19T05:33:56;74935.69;;;-145.10;24.22
56334;BME280;42240;53.626;55.886;2022-08-19T05:35:31;74935.69;;;-145.10;24.22
56334;BME280;42240;53.626;55.886;2022-08-19T05:37:06;75054.28;;;-145.10;24.56
56334;BME280;42240;53.626;55.886;2022-08-19T05:38:41;75006.84;;;-145.10;24.44
56334;BME280;42240;53.626;55.886;2022-08-19T05:40:14;75014.75;;;-145.10;24.66
56334;BME280;42240;53.626;55.886;2022-08-19T05:41:48;75133.34;;;-145.10;24.96
56334;BME280;42240;53.626;55.886;2022-08-19T05:43:22;75139.28;;;-145.10;25.26
56334;BME280;42240;53.626;55.886;2022-08-19T05:44:56;75164.97;;;-145.10;25.37
56334;BME280;42240;53.626;55.886;2022-08-19T05:46:29;75145.19;;;-145.10;25.29
56334;BME280;42240;53.626;55.886;2022-08-19T05:48:06;75113.56;;;-145.10;25.31
56334;BME280;42240;53.626;55.886;2022-08-19T05:49:39;75032.53;;;-145.10;25.09
56334;BME280;42240;53.626;55.886;2022-08-19T05:51:12;75038.47;;;-145.10;24.75
56334;BME280;42240;53.626;55.886;2022-08-19T05:52:48;75161.00;;;-145.10;25.48
56334;BME280;42240;53.626;55.886;2022-08-19T05:54:22;75151.13;;;-145.10;25.75
56334;BME280;42240;53.626;55.886;2022-08-19T05:55:56;75026.59;;;-145.10;25.17
56334;BME280;42240;53.626;55.886;2022-08-19T05:57:30;75089.84;;;-145.10;25.24
56334;BME280;42240;53.626;55.886;2022-08-19T05:59:07;75131.38;;;-145.10;25.72
56334;BME280;42240;53.626;55.886;2022-08-19T06:00:42;75093.81;;;-145.10;25.90
56334;BME280;42240;53.626;55.886;2022-08-19T06:02:16;75127.41;;;-145.10;25.61
56334;BME280;42240;53.626;55.886;2022-08-19T06:03:52;75060.22;;;-145.10;25.42
56334;BME280;42240;53.626;55.886;2022-08-19T06:05:26;75072.06;;;-145.10;25.41
56334;BME280;42240;53.626;55.886;2022-08-19T06:06:59;75026.59;;;-145.10;25.39
56334;BME280;42240;53.626;55.886;2022-08-19T06:08:44;74993.00;;;-145.10;24.78
56334;BME280;42240;53.626;55.886;2022-08-19T06:10:24;75123.47;;;-145.10;25.60
56334;BME280;42240;53.626;55.886;2022-08-19T06:11:58;75261.81;;;-145.10;26.38
56334;BME280;42240;53.626;55.886;2022-08-19T06:13:32;75163.00;;;-145.10;26.28
56334;BME280;42240;53.626;55.886;2022-08-19T06:15:10;75135.31;;;-145.10;25.67
56334;BME280;42240;53.626;55.886;2022-08-19T06:16:49;75093.81;;;-145.10;25.59
56334;BME280;42240;53.626;55.886;2022-08-19T06:18:26;75190.66;;;-145.10;26.26
56334;BME280;42240;53.626;55.886;2022-08-19T06:20:00;75192.63;;;-145.10;26.16
56334;BME280;42240;53.626;55.886;2022-08-19T06:21:38;75214.38;;;-145.10;25.95
56334;BME280;42240;53.626;55.886;2022-08-19T06:23:11;75121.47;;;-145.10;25.56
56334;BME280;42240;53.626;55.886;2022-08-19T06:24:48;75184.72;;;-145.10;25.74
56334;BME280;42240;53.626;55.886;2022-08-19T06:26:28;75166.94;;;-145.10;25.92
56334;BME280;42240;53.626;55.886;2022-08-19T06:28:01;75159.03;;;-145.10;26.09
56334;BME280;42240;53.626;55.886;2022-08-19T06:29:51;75200.53;;;-145.10;26.37
56334;BME280;42240;53.626;55.886;2022-08-19T06:31:25;75226.25;;;-145.10;26.37
56334;BME280;42240;53.626;55.886;2022-08-19T06:32:59;75255.91;;;-145.10;26.56
56334;BME280;42240;53.626;55.886;2022-08-19T06:34:33;75275.66;;;-145.10;26.62
56334;BME280;42240;53.626;55.886;2022-08-19T06:36:07;75382.41;;;-145.10;27.05
56334;BME280;42240;53.626;55.886;2022-08-19T06:37:41;75445.66;;;-145.10;27.52
56334;BME280;42240;53.626;55.886;2022-08-19T06:39:17;75475.31;;;-145.10;27.87
56334;BME280;42240;53.626;55.886;2022-08-19T06:40:59;75469.38;;;-145.10;27.72
56334;BME280;42240;53.626;55.886;2022-08-19T06:42:38;75495.09;;;-145.10;28.23
56334;BME280;42240;53.626;55.886;2022-08-19T06:44:28;75429.84;;;-145.10;28.01
56334;BME280;42240;53.626;55.886;2022-08-19T06:46:03;75538.59;;;-145.10;28.27
56334;BME280;42240;53.626;55.886;2022-08-19T06:47:37;75570.22;;;-145.10;28.42
56334;BME280;42240;53.626;55.886;2022-08-19T06:49:11;75548.47;;;-145.10;28.72
56334;BME280;42240;53.626;55.886;2022-08-19T06:50:48;75449.63;;;-145.10;29.09
56334;BME280;42240;53.626;55.886;2022-08-19T06:52:24;75576.13;;;-145.10;28.45
56334;BME280;42240;53.626;55.886;2022-08-19T06:53:57;75621.59;;;-145.10;29.04
56334;BME280;42240;53.626;55.886;2022-08-19T06:55:31;75617.66;;;-145.10;29.06
56334;BME280;42240;53.626;55.886;2022-08-19T06:57:05;75667.06;;;-145.10;29.33
56334;BME280;42240;53.626;55.886;2022-08-19T06:58:42;75676.97;;;-145.10;29.47
56334;BME280;42240;53.626;55.886;2022-08-19T07:00:15;75680.91;;;-145.10;29.63
56334;BME280;42240;53.626;55.886;2022-08-19T07:01:51;75667.06;;;-145.10;29.87
56334;BME280;42240;53.626;55.886;2022-08-19T07:03:24;75692.78;;;-145.10;30.10
56334;BME280;42240;53.626;55.886;2022-08-19T07:05:03;75676.97;;;-145.10;29.87
56334;BME280;42240;53.626;55.886;2022-08-19T07:06:38;75673.00;;;-145.10;30.23
56334;BME280;42240;53.626;55.886;2022-08-19T07:08:15;75694.75;;;-145.10;29.91
56334;BME280;42240;53.626;55.886;2022-08-19T07:09:50;75714.53;;;-145.10;30.12
56334;BME280;42240;53.626;55.886;2022-08-19T07:11:34;75748.13;;;-145.10;30.71
56334;BME280;42240;53.626;55.886;2022-08-19T07:13:08;75742.19;;;-145.10;30.71
56334;BME280;42240;53.626;55.886;2022-08-19T07:14:42;75773.84;;;-145.10;30.89
56334;BME280;42240;53.626;55.886;2022-08-19T07:16:16;75758.03;;;-145.10;30.77
56334;BME280;42240;53.626;55.886;2022-08-19T07:18:00;75740.22;;;-145.10;30.98
56334;BME280;42240;53.626;55.886;2022-08-19T07:19:34;75769.88;;;-145.10;31.07
56334;BME280;42240;53.626;55.886;2022-08-19T07:21:10;75773.84;;;-145.10;31.05
56334;BME280;42240;53.626;55.886;2022-08-19T07:22:44;75805.47;;;-145.10;31.29
56334;BME280;42240;53.626;55.886;2022-08-19T07:24:18;75793.59;;;-145.10;31.54
56334;BME280;42240;53.626;55.886;2022-08-19T07:25:52;75801.50;;;-145.10;31.70
56334;BME280;42240;53.626;55.886;2022-08-19T07:27:26;75835.13;;;-145.10;31.74
56334;BME280;42240;53.626;55.886;2022-08-19T07:28:59;75823.25;;;-145.10;31.65
56334;BME280;42240;53.626;55.886;2022-08-19T07:30:38;75758.03;;;-145.10;31.56
56334;BME280;42240;53.626;55.886;2022-08-19T07:32:14;75722.44;;;-145.10;31.71
56334;BME280;42240;53.626;55.886;2022-08-19T07:33:48;75767.91;;;-145.10;31.23
56334;BME280;42240;53.626;55.886;2022-08-19T07:35:26;75765.94;;;-145.10;31.38
56334;BME280;42240;53.626;55.886;2022-08-19T07:37:01;75775.81;;;-145.10;31.53
56334;BME280;42240;53.626;55.886;2022-08-19T07:38:34;75730.34;;;-145.10;31.48
56334;BME280;42240;53.626;55.886;2022-08-19T07:40:11;75754.06;;;-145.10;31.58
56334;BME280;42240;53.626;55.886;2022-08-19T07:41:46;75799.53;;;-145.10;31.85
56334;BME280;42240;53.626;55.886;2022-08-19T07:43:20;75787.69;;;-145.10;31.81
56334;BME280;42240;53.626;55.886;2022-08-19T07:45:09;75817.31;;;-145.10;32.04
56334;BME280;42240;53.626;55.886;2022-08-19T07:46:48;75791.63;;;-145.10;32.28
56334;BME280;42240;53.626;55.886;2022-08-19T07:48:26;75807.44;;;-145.10;32.57
56334;BME280;42240;53.626;55.886;2022-08-19T07:50:00;75779.75;;;-145.10;32.51
56334;BME280;42240;53.626;55.886;2022-08-19T07:51:33;75789.66;;;-145.10;31.98
56334;BME280;42240;53.626;55.886;2022-08-19T07:53:10;75852.91;;;-145.10;32.15
56334;BME280;42240;53.626;55.886;2022-08-19T07:54:45;75821.28;;;-145.10;32.06
56334;BME280;42240;53.626;55.886;2022-08-19T07:56:21;75813.38;;;-145.10;32.42
56334;BME280;42240;53.626;55.886;2022-08-19T07:57:54;75856.88;;;-145.10;32.53
56334;BME280;42240;53.626;55.886;2022-08-19T07:59:28;75848.97;;;-145.10;32.68
56334;BME280;42240;53.626;55.886;2022-08-19T08:01:03;75754.06;;;-145.10;32.96
56334;BME280;42240;53.626;55.886;2022-08-19T08:02:37;75829.19;;;-145.10;32.61
56334;BME280;42240;53.626;55.886;2022-08-19T08:04:12;75845.00;;;-145.10;32.81
56334;BME280;42240;53.626;55.886;2022-08-19T08:06:03;75815.34;;;-145.10;32.59
56334;BME280;42240;53.626;55.886;2022-08-19T08:08:13;75797.56;;;-145.10;32.57
56334;BME280;42240;53.626;55.886;2022-08-19T08:10:05;75730.34;;;-145.10;32.41
56334;BME280;42240;53.626;55.886;2022-08-19T08:11:57;75761.97;;;-145.10;32.11
56334;BME280;42240;53.626;55.886;2022-08-19T08:13:36;75771.84;;;-145.10;32.21